Time;durP1;ratioP1;P1;durP2;ratioP2;P2;SDS_P1;SDS_P2;PMS_P1;PMS_P2;Temp;Humidity;BMP_temperature;BMP_pressure;BME280_temperature;BME280_humidity;BME280_pressure;Samples;Min_cycle;Max_cycle;Signal;HPM_P1;HPM_P2
2022/10/03 00:00:36;;;;;;;6.60;4.43;;;;;;;;;;5074214;28;19908;-40
2022/10/03 00:03:20;;;;;;;6.40;3.10;;;;;;;;;;5056336;28;20024;-41
2022/10/03 00:05:46;;;;;;;3.58;3.00;;;;;;;;;;5073704;28;20035;-41
2022/10/03 00:08:32;;;;;;;6.03;4.20;;;;;;;;;;5073913;28;20013;-40
2022/10/03 00:11:01;;;;;;;5.90;3.55;;;;;;;;;;5022346;28;20036;-40
2022/10/03 00:13:44;;;;;;;5.85;4.00;;;;;;;;;;5073830;28;20089;-41
2022/10/03 00:16:22;;;;;;;7.35;4.15;;;;;;;;;;5073536;28;20039;-40
2022/10/03 00:19:01;;;;;;;6.00;3.72;;;;;;;;;;5073401;28;20489;-40
2022/10/03 00:21:29;;;;;;;4.85;3.08;;;;;;;;;;5073675;28;20032;-40
2022/10/03 00:23:55;;;;;;;4.65;3.67;;;;;;;;;;5073485;28;20021;-41
2022/10/03 00:26:37;;;;;;;5.22;3.55;;;;;;;;;;5073234;28;20032;-41
2022/10/03 00:29:17;;;;;;;4.22;3.05;;;;;;;;;;5073227;28;20499;-40
2022/10/03 00:31:43;;;;;;;9.30;4.15;;;;;;;;;;5073238;28;20033;-40
2022/10/03 00:34:19;;;;;;;4.68;3.08;;;;;;;;;;5073189;28;20025;-41
2022/10/03 00:36:51;;;;;;;5.53;3.65;;;;;;;;;;5073129;28;20037;-41
2022/10/03 00:39:26;;;;;;;5.63;3.60;;;;;;;;;;5073200;28;20052;-41
2022/10/03 00:42:00;;;;;;;4.55;3.30;;;;;;;;;;5073090;28;20036;-41
2022/10/03 00:44:42;;;;;;;9.50;4.40;;;;;;;;;;5072987;28;20021;-40
2022/10/03 00:47:10;;;;;;;6.18;3.75;;;;;;;;;;5072914;28;20494;-40
2022/10/03 00:49:55;;;;;;;5.75;3.63;;;;;;;;;;5072506;28;20479;-39
2022/10/03 00:52:39;;;;;;;6.35;3.78;;;;;;;;;;5072663;28;20099;-39
2022/10/03 00:55:22;;;;;;;4.55;3.00;;;;;;;;;;5073351;28;20041;-40
2022/10/03 00:58:06;;;;;;;9.70;2.90;;;;;;;;;;5073079;28;20090;-40
2022/10/03 01:00:33;;;;;;;4.88;2.53;;;;;;;;;;5072561;28;20119;-40
2022/10/03 01:03:18;;;;;;;10.48;3.72;;;;;;;;;;5072734;28;20378;-41
2022/10/03 01:05:48;;;;;;;4.75;3.15;;;;;;;;;;5072967;28;20063;-40
2022/10/03 01:08:25;;;;;;;4.22;2.88;;;;;;;;;;5072370;28;20033;-40
2022/10/03 01:11:01;;;;;;;3.67;2.40;;;;;;;;;;5054576;28;20033;-40
2022/10/03 01:13:35;;;;;;;11.63;3.90;;;;;;;;;;5072485;28;20028;-40
2022/10/03 01:16:10;;;;;;;4.60;3.70;;;;;;;;;;5072612;28;20041;-40
2022/10/03 01:19:05;;;;;;;4.22;3.15;;;;;;;;;;5072380;28;20107;-40
2022/10/03 01:21:47;;;;;;;3.17;2.42;;;;;;;;;;5050771;28;20124;-40
2022/10/03 01:24:25;;;;;;;4.03;3.08;;;;;;;;;;5072168;28;20043;-40
2022/10/03 01:26:54;;;;;;;4.85;3.05;;;;;;;;;;5072234;28;20043;-40
2022/10/03 01:32:20;;;;;;;3.92;3.10;;;;;;;;;;5072192;28;20028;-40
2022/10/03 01:35:06;;;;;;;3.47;2.50;;;;;;;;;;5072109;28;20035;-40
2022/10/03 01:37:38;;;;;;;7.03;3.17;;;;;;;;;;5020826;28;20036;-41
2022/10/03 01:40:19;;;;;;;3.58;3.28;;;;;;;;;;5072219;28;20036;-41
2022/10/03 01:43:04;;;;;;;3.78;2.58;;;;;;;;;;5071901;28;20035;-41
2022/10/03 01:45:53;;;;;;;4.22;2.47;;;;;;;;;;5071133;28;20135;-41
2022/10/03 01:48:22;;;;;;;4.22;2.40;;;;;;;;;;5071644;28;20382;-41
2022/10/03 01:50:54;;;;;;;3.60;2.55;;;;;;;;;;5071756;28;20033;-40
2022/10/03 01:53:19;;;;;;;6.10;3.53;;;;;;;;;;5072054;28;20078;-41
2022/10/03 01:56:20;;;;;;;3.40;2.33;;;;;;;;;;5071666;28;20032;-41
2022/10/03 01:58:48;;;;;;;6.13;3.78;;;;;;;;;;4954484;28;20494;-40
2022/10/03 02:01:22;;;;;;;3.75;2.47;;;;;;;;;;5051941;28;20463;-40
2022/10/03 02:03:48;;;;;;;9.60;2.55;;;;;;;;;;5071664;28;20040;-40
2022/10/03 02:06:16;;;;;;;12.88;3.00;;;;;;;;;;5071831;28;20021;-40
2022/10/03 02:09:00;;;;;;;6.40;3.05;;;;;;;;;;5071787;28;20044;-40
2022/10/03 02:11:49;;;;;;;5.45;3.45;;;;;;;;;;5071654;28;20035;-40
2022/10/03 02:14:29;;;;;;;4.40;3.40;;;;;;;;;;5057962;28;20029;-40
2022/10/03 02:16:58;;;;;;;4.57;2.65;;;;;;;;;;5071953;28;20027;-40
2022/10/03 02:19:35;;;;;;;4.30;2.88;;;;;;;;;;5053390;28;20467;-40
2022/10/03 02:22:01;;;;;;;3.78;3.08;;;;;;;;;;5071348;28;20464;-41
2022/10/03 02:24:29;;;;;;;4.32;2.97;;;;;;;;;;5071319;28;20029;-40
2022/10/03 02:27:13;;;;;;;5.43;3.53;;;;;;;;;;5071298;28;20082;-40
2022/10/03 02:29:57;;;;;;;3.30;2.85;;;;;;;;;;5071531;28;20094;-41
2022/10/03 02:32:45;;;;;;;2.95;2.15;;;;;;;;;;5071454;28;20037;-40
2022/10/03 02:35:14;;;;;;;3.70;2.78;;;;;;;;;;5071045;28;20025;-41
2022/10/03 02:37:44;;;;;;;4.30;2.45;;;;;;;;;;5071301;28;20131;-40
2022/10/03 02:40:33;;;;;;;2.60;2.35;;;;;;;;;;5071199;28;20027;-40
2022/10/03 02:43:16;;;;;;;3.58;2.13;;;;;;;;;;5024212;28;20037;-40
2022/10/03 02:46:00;;;;;;;2.10;1.88;;;;;;;;;;5071283;28;20056;-40
2022/10/03 02:48:48;;;;;;;3.15;2.30;;;;;;;;;;5070893;28;20032;-40
2022/10/03 02:51:38;;;;;;;3.45;2.90;;;;;;;;;;5071366;28;20364;-40
2022/10/03 02:54:09;;;;;;;5.57;2.97;;;;;;;;;;5071143;28;20037;-40
2022/10/03 02:56:38;;;;;;;3.40;2.70;;;;;;;;;;5070964;28;20036;-40
2022/10/03 02:59:36;;;;;;;5.22;3.20;;;;;;;;;;5071081;28;20013;-40
2022/10/03 03:02:20;;;;;;;2.85;2.47;;;;;;;;;;5015877;28;20063;-40
2022/10/03 03:05:01;;;;;;;2.40;1.95;;;;;;;;;;5071383;28;20052;-40
2022/10/03 03:07:37;;;;;;;3.75;2.88;;;;;;;;;;5070843;28;20033;-40
2022/10/03 03:10:06;;;;;;;3.08;2.20;;;;;;;;;;5071034;28;20041;-40
2022/10/03 03:12:54;;;;;;;2.60;2.35;;;;;;;;;;5071120;28;20029;-40
2022/10/03 03:15:38;;;;;;;4.25;2.70;;;;;;;;;;5074040;28;20029;-40
2022/10/03 03:18:03;;;;;;;3.05;2.58;;;;;;;;;;5074923;28;20031;-40
2022/10/03 03:20:40;;;;;;;4.03;2.55;;;;;;;;;;5074889;28;20744;-40
2022/10/03 03:23:24;;;;;;;3.78;2.53;;;;;;;;;;5074803;28;20024;-41
2022/10/03 03:25:49;;;;;;;5.93;2.70;;;;;;;;;;5074558;28;20471;-41
2022/10/03 03:28:20;;;;;;;3.78;2.50;;;;;;;;;;5074309;28;20039;-41
2022/10/03 03:30:55;;;;;;;2.47;2.25;;;;;;;;;;5074680;28;20028;-40
2022/10/03 03:33:28;;;;;;;13.07;4.10;;;;;;;;;;5074398;28;20021;-40
2022/10/03 03:35:56;;;;;;;4.10;2.50;;;;;;;;;;5074242;28;20059;-40
2022/10/03 03:38:40;;;;;;;3.40;2.50;;;;;;;;;;5074109;28;20024;-40
2022/10/03 03:41:23;;;;;;;2.88;2.45;;;;;;;;;;5074518;28;20028;-40
2022/10/03 03:44:05;;;;;;;3.17;2.20;;;;;;;;;;5074285;28;20490;-40
2022/10/03 03:46:50;;;;;;;2.90;2.35;;;;;;;;;;5074075;28;20486;-40
2022/10/03 03:49:34;;;;;;;3.08;2.45;;;;;;;;;;5073823;28;20390;-40
2022/10/03 03:52:11;;;;;;;2.88;2.58;;;;;;;;;;5074111;28;20589;-40
2022/10/03 03:54:56;;;;;;;4.15;2.38;;;;;;;;;;5074252;28;20052;-40
2022/10/03 03:57:33;;;;;;;3.88;2.60;;;;;;;;;;5074120;28;20098;-40
2022/10/03 04:00:13;;;;;;;2.78;2.30;;;;;;;;;;5073801;28;20033;-40
2022/10/03 04:02:45;;;;;;;10.30;2.55;;;;;;;;;;5073830;28;20123;-40
2022/10/03 04:05:17;;;;;;;5.85;2.92;;;;;;;;;;5073793;28;20074;-40
2022/10/03 04:07:49;;;;;;;2.38;2.08;;;;;;;;;;5073803;28;20067;-40
2022/10/03 04:10:20;;;;;;;2.40;1.88;;;;;;;;;;5073695;28;20045;-40
2022/10/03 04:13:03;;;;;;;2.58;2.13;;;;;;;;;;5073941;28;20082;-41
2022/10/03 04:15:46;;;;;;;4.18;2.05;;;;;;;;;;5073601;28;20037;-40
2022/10/03 04:21:08;;;;;;;2.83;1.70;;;;;;;;;;5073740;28;19912;-40
2022/10/03 04:23:52;;;;;;;3.72;2.30;;;;;;;;;;5073487;28;20044;-40
2022/10/03 04:26:27;;;;;;;2.38;1.88;;;;;;;;;;5073150;28;20581;-40
2022/10/03 04:29:05;;;;;;;4.55;2.35;;;;;;;;;;5055579;28;20444;-40
2022/10/03 04:31:54;;;;;;;2.42;1.95;;;;;;;;;;5073265;28;20475;-40
2022/10/03 04:34:38;;;;;;;2.13;1.92;;;;;;;;;;5059865;28;20040;-40
2022/10/03 04:37:15;;;;;;;2.85;1.67;;;;;;;;;;5073098;28;20056;-40
2022/10/03 04:39:41;;;;;;;3.25;2.50;;;;;;;;;;5073233;28;20032;-40
2022/10/03 04:42:15;;;;;;;2.75;2.03;;;;;;;;;;5073049;28;20086;-40
2022/10/03 04:45:03;;;;;;;4.03;2.80;;;;;;;;;;5073101;28;20490;-40
2022/10/03 04:47:37;;;;;;;4.07;2.10;;;;;;;;;;5072947;28;20041;-40
2022/10/03 04:50:07;;;;;;;3.13;2.10;;;;;;;;;;5072863;28;20041;-39
2022/10/03 04:52:38;;;;;;;4.10;2.50;;;;;;;;;;5072853;28;20092;-40
2022/10/03 04:55:19;;;;;;;3.33;2.10;;;;;;;;;;5072940;28;20058;-40
2022/10/03 04:58:05;;;;;;;2.15;1.95;;;;;;;;;;5073062;28;20400;-40
2022/10/03 05:00:33;;;;;;;3.95;2.33;;;;;;;;;;5072717;28;20550;-40
2022/10/03 05:03:25;;;;;;;4.00;2.40;;;;;;;;;;5054745;28;20028;-40
2022/10/03 05:06:05;;;;;;;3.17;2.15;;;;;;;;;;5067920;28;20048;-40
2022/10/03 05:08:48;;;;;;;3.45;2.75;;;;;;;;;;5072683;28;20032;-40
2022/10/03 05:11:32;;;;;;;3.53;2.28;;;;;;;;;;5072362;28;20033;-40
2022/10/03 05:13:59;;;;;;;2.97;1.98;;;;;;;;;;5072527;28;20028;-40
2022/10/03 05:16:45;;;;;;;2.58;2.20;;;;;;;;;;5072329;28;20058;-40
2022/10/03 05:19:16;;;;;;;3.17;2.55;;;;;;;;;;5072336;28;20505;-40
2022/10/03 05:21:46;;;;;;;2.55;2.30;;;;;;;;;;5072624;28;20379;-40
2022/10/03 05:24:18;;;;;;;4.72;2.40;;;;;;;;;;5072185;28;20016;-40
2022/10/03 05:26:52;;;;;;;2.85;2.65;;;;;;;;;;5072441;28;20433;-40
2022/10/03 05:29:18;;;;;;;3.85;2.35;;;;;;;;;;5071937;28;20040;-40
2022/10/03 05:32:00;;;;;;;3.25;2.67;;;;;;;;;;5072103;28;20070;-40
2022/10/03 05:34:28;;;;;;;1.85;1.70;;;;;;;;;;5072138;28;20040;-40
2022/10/03 05:36:54;;;;;;;3.10;2.28;;;;;;;;;;5071401;28;20049;-40
2022/10/03 05:39:29;;;;;;;2.53;2.25;;;;;;;;;;5072053;28;20090;-40
2022/10/03 05:42:04;;;;;;;4.43;2.33;;;;;;;;;;5071982;28;20074;-40
2022/10/03 05:44:41;;;;;;;3.03;2.22;;;;;;;;;;5072080;28;20425;-40
2022/10/03 05:50:19;;;;;;;2.83;2.13;;;;;;;;;;5071773;28;20048;-40
2022/10/03 05:52:44;;;;;;;2.35;1.27;;;;;;;;;;5071950;28;20028;-40
2022/10/03 05:55:10;;;;;;;2.13;1.70;;;;;;;;;;5071798;28;20375;-40
2022/10/03 05:57:51;;;;;;;3.28;1.75;;;;;;;;;;5071835;28;20051;-40
2022/10/03 06:00:19;;;;;;;3.55;2.33;;;;;;;;;;5071845;28;20098;-40
2022/10/03 06:02:53;;;;;;;1.95;1.70;;;;;;;;;;5071718;28;20031;-40
2022/10/03 06:05:28;;;;;;;4.57;2.28;;;;;;;;;;5071546;28;20041;-40
2022/10/03 06:07:53;;;;;;;2.25;1.88;;;;;;;;;;5071515;28;20032;-40
2022/10/03 06:10:33;;;;;;;2.33;2.10;;;;;;;;;;5071768;28;20395;-40
2022/10/03 06:13:10;;;;;;;5.68;2.47;;;;;;;;;;5071276;28;20029;-40
2022/10/03 06:15:53;;;;;;;3.50;2.15;;;;;;;;;;5053706;28;20031;-40
2022/10/03 06:18:22;;;;;;;2.95;2.40;;;;;;;;;;5071372;28;20063;-41
2022/10/03 06:21:06;;;;;;;2.88;2.22;;;;;;;;;;5071453;28;20021;-39
2022/10/03 06:23:44;;;;;;;3.45;1.92;;;;;;;;;;5071205;28;20437;-40
2022/10/03 06:26:19;;;;;;;5.00;2.03;;;;;;;;;;5071461;28;20041;-40
2022/10/03 06:29:04;;;;;;;2.53;1.95;;;;;;;;;;5071219;28;20028;-40
2022/10/03 06:31:50;;;;;;;3.35;2.53;;;;;;;;;;5053633;28;20047;-39
2022/10/03 06:34:34;;;;;;;2.92;2.10;;;;;;;;;;5071222;28;20100;-40
2022/10/03 06:37:17;;;;;;;3.65;2.45;;;;;;;;;;5071151;28;20153;-40
2022/10/03 06:39:45;;;;;;;2.63;1.92;;;;;;;;;;5071353;28;20434;-40
2022/10/03 06:42:21;;;;;;;4.15;1.63;;;;;;;;;;5071291;28;20067;-40
2022/10/03 06:45:13;;;;;;;3.28;1.70;;;;;;;;;;5069891;28;20031;-40
2022/10/03 06:47:42;;;;;;;3.97;3.58;;;;;;;;;;5016758;28;20386;-40
2022/10/03 06:50:34;;;;;;;3.70;2.25;;;;;;;;;;5075390;28;20040;-40
2022/10/03 06:53:10;;;;;;;5.40;2.47;;;;;;;;;;5057587;28;20051;-40
2022/10/03 06:55:39;;;;;;;2.63;1.98;;;;;;;;;;5075342;28;20033;-40
2022/10/03 06:58:23;;;;;;;4.45;1.42;;;;;;;;;;5074960;28;20027;-41
2022/10/03 07:00:55;;;;;;;2.67;1.55;;;;;;;;;;5075042;28;20035;-40
2022/10/03 07:03:30;;;;;;;2.15;1.92;;;;;;;;;;5075076;28;20488;-40
2022/10/03 07:06:06;;;;;;;2.63;1.85;;;;;;;;;;5074972;28;20493;-40
2022/10/03 07:08:51;;;;;;;3.08;1.95;;;;;;;;;;5074652;28;20028;-40
2022/10/03 07:11:25;;;;;;;2.97;1.30;;;;;;;;;;5074715;28;20097;-41
2022/10/03 07:13:50;;;;;;;1.83;1.40;;;;;;;;;;5075021;28;20475;-40
2022/10/03 07:16:40;;;;;;;6.07;3.50;;;;;;;;;;5074897;28;20032;-40
2022/10/03 07:19:05;;;;;;;2.88;1.63;;;;;;;;;;5028220;28;20128;-40
2022/10/03 07:21:31;;;;;;;2.42;1.50;;;;;;;;;;5074662;28;20103;-41
2022/10/03 07:24:10;;;;;;;2.03;1.77;;;;;;;;;;5074668;28;20103;-40
2022/10/03 07:26:42;;;;;;;1.83;1.50;;;;;;;;;;5074511;28;20028;-40
2022/10/03 07:29:14;;;;;;;1.67;1.58;;;;;;;;;;5074426;28;20131;-40
2022/10/03 07:31:39;;;;;;;1.77;1.60;;;;;;;;;;5074768;28;20170;-40
2022/10/03 07:34:23;;;;;;;3.22;2.58;;;;;;;;;;5074686;28;20488;-40
2022/10/03 07:39:37;;;;;;;4.40;2.03;;;;;;;;;;5074153;28;20028;-40
2022/10/03 07:42:11;;;;;;;2.30;1.50;;;;;;;;;;5074258;28;20107;-40
2022/10/03 07:44:39;;;;;;;1.52;1.30;;;;;;;;;;5074186;28;20482;-40
2022/10/03 07:47:26;;;;;;;2.88;1.70;;;;;;;;;;5074197;28;20028;-39
2022/10/03 07:49:51;;;;;;;2.70;1.27;;;;;;;;;;5074437;28;20048;-40
2022/10/03 07:52:23;;;;;;;1.58;1.48;;;;;;;;;;5074079;28;20070;-40
2022/10/03 07:54:57;;;;;;;1.88;1.38;;;;;;;;;;5074066;28;20182;-40
2022/10/03 07:57:36;;;;;;;2.22;1.70;;;;;;;;;;5073889;28;20110;-40
2022/10/03 08:00:02;;;;;;;1.88;1.65;;;;;;;;;;5073396;28;20040;-40
2022/10/03 08:02:55;;;;;;;1.80;1.70;;;;;;;;;;5074234;28;20028;-40
2022/10/03 08:05:24;;;;;;;1.58;0.98;;;;;;;;;;5073789;28;20483;-41
2022/10/03 08:08:08;;;;;;;1.73;1.25;;;;;;;;;;5074028;28;20047;-41
2022/10/03 08:10:48;;;;;;;1.20;0.93;;;;;;;;;;5074213;28;20182;-40
2022/10/03 08:13:25;;;;;;;1.88;1.35;;;;;;;;;;5073680;28;20169;-41
2022/10/03 08:16:16;;;;;;;3.78;1.85;;;;;;;;;;5073870;28;20436;-40
2022/10/03 08:18:55;;;;;;;1.38;1.27;;;;;;;;;;5073601;28;20543;-41
2022/10/03 08:21:24;;;;;;;1.60;1.23;;;;;;;;;;5055681;28;20028;-40
2022/10/03 08:24:10;;;;;;;1.70;1.40;;;;;;;;;;5073594;28;20020;-41
2022/10/03 08:26:40;;;;;;;0.90;0.85;;;;;;;;;;5073441;28;20561;-40
2022/10/03 08:29:08;;;;;;;2.05;1.85;;;;;;;;;;5073514;28;20437;-40
2022/10/03 08:31:46;;;;;;;7.15;1.40;;;;;;;;;;5073322;28;20033;-40
2022/10/03 08:34:11;;;;;;;2.25;0.90;;;;;;;;;;5073437;28;20100;-40
2022/10/03 08:36:54;;;;;;;3.55;1.13;;;;;;;;;;5055201;28;20456;-40
2022/10/03 08:39:25;;;;;;;1.83;1.13;;;;;;;;;;5073170;28;20033;-40
2022/10/03 08:41:51;;;;;;;1.20;1.10;;;;;;;;;;5055280;28;20085;-40
2022/10/03 08:44:35;;;;;;;1.88;1.13;;;;;;;;;;5055210;28;20685;-40
2022/10/03 08:47:04;;;;;;;1.05;0.98;;;;;;;;;;5073386;28;20020;-40
2022/10/03 08:49:39;;;;;;;1.80;1.10;;;;;;;;;;5072876;28;20425;-40
2022/10/03 08:52:15;;;;;;;2.75;1.17;;;;;;;;;;5072914;28;20516;-40
2022/10/03 08:55:00;;;;;;;1.08;0.98;;;;;;;;;;5072978;28;20036;-40
2022/10/03 08:57:27;;;;;;;1.45;0.70;;;;;;;;;;5072701;28;20055;-40
2022/10/03 08:59:52;;;;;;;1.00;0.73;;;;;;;;;;5073169;28;20059;-40
2022/10/03 09:02:30;;;;;;;1.27;0.77;;;;;;;;;;5072636;28;20407;-40
2022/10/03 09:05:10;;;;;;;0.80;0.80;;;;;;;;;;5072721;28;20036;-40
2022/10/03 09:07:53;;;;;;;1.95;1.10;;;;;;;;;;5072833;28;20028;-40
2022/10/03 09:10:37;;;;;;;1.08;0.95;;;;;;;;;;5072546;28;20511;-40
2022/10/03 09:13:02;;;;;;;0.80;0.80;;;;;;;;;;5071869;28;20056;-40
2022/10/03 09:15:46;;;;;;;1.30;0.90;;;;;;;;;;5072651;28;20048;-41
2022/10/03 09:18:31;;;;;;;1.27;1.10;;;;;;;;;;5072440;28;20067;-40
2022/10/03 09:21:11;;;;;;;0.55;0.55;;;;;;;;;;5072666;28;20025;-40
2022/10/03 09:23:37;;;;;;;1.08;0.90;;;;;;;;;;5072245;28;20036;-40
2022/10/03 09:26:12;;;;;;;0.85;0.85;;;;;;;;;;5072265;28;20024;-41
2022/10/03 09:28:43;;;;;;;1.15;1.05;;;;;;;;;;5071980;28;20071;-40
2022/10/03 09:31:08;;;;;;;1.95;0.75;;;;;;;;;;5072282;28;20040;-40
2022/10/03 09:33:34;;;;;;;1.05;0.95;;;;;;;;;;5072359;28;20016;-39
2022/10/03 09:36:06;;;;;;;1.17;0.80;;;;;;;;;;5072091;28;20406;-40
2022/10/03 09:38:46;;;;;;;1.02;0.70;;;;;;;;;;5071995;28;20048;-40
2022/10/03 09:41:11;;;;;;;0.90;0.90;;;;;;;;;;5072201;28;20059;-40
2022/10/03 09:43:49;;;;;;;0.80;0.80;;;;;;;;;;5071901;28;20459;-40
2022/10/03 09:46:33;;;;;;;1.05;0.80;;;;;;;;;;5071844;28;20036;-40
2022/10/03 09:49:15;;;;;;;0.85;0.80;;;;;;;;;;5071764;28;20196;-40
2022/10/03 09:51:56;;;;;;;0.47;0.47;;;;;;;;;;5064113;28;20475;-41
2022/10/03 09:54:22;;;;;;;0.60;0.55;;;;;;;;;;5030148;28;20033;-40
2022/10/03 09:56:54;;;;;;;1.73;0.70;;;;;;;;;;5031892;28;20020;-40
2022/10/03 09:59:33;;;;;;;3.03;0.70;;;;;;;;;;5031806;28;20030;-40
2022/10/03 10:02:10;;;;;;;3.15;1.08;;;;;;;;;;5031778;28;20053;-40
2022/10/03 10:04:54;;;;;;;1.45;0.77;;;;;;;;;;5031678;28;20036;-40
2022/10/03 10:07:20;;;;;;;0.70;0.70;;;;;;;;;;5031574;28;20102;-41
2022/10/03 10:10:04;;;;;;;0.98;0.90;;;;;;;;;;5030275;28;20041;-41
2022/10/03 10:12:41;;;;;;;1.13;0.70;;;;;;;;;;5031884;28;20380;-40
2022/10/03 10:15:26;;;;;;;1.73;0.70;;;;;;;;;;5031690;28;20037;-40
2022/10/03 10:17:51;;;;;;;0.77;0.75;;;;;;;;;;5031587;28;20060;-40
2022/10/03 10:20:16;;;;;;;2.75;0.82;;;;;;;;;;5031513;28;20490;-40
2022/10/03 10:22:51;;;;;;;1.40;1.02;;;;;;;;;;5031239;28;20488;-40
2022/10/03 10:25:23;;;;;;;2.40;1.00;;;;;;;;;;5031668;28;20075;-40
2022/10/03 10:27:55;;;;;;;0.70;0.60;;;;;;;;;;5031733;28;20044;-40
2022/10/03 10:30:21;;;;;;;0.70;0.60;;;;;;;;;;5031536;28;20045;-41
2022/10/03 10:32:58;;;;;;;1.35;0.95;;;;;;;;;;5031689;28;20463;-41
2022/10/03 10:35:37;;;;;;;0.80;0.52;;;;;;;;;;5031395;28;20049;-40
2022/10/03 10:38:18;;;;;;;0.85;0.68;;;;;;;;;;5031303;28;20025;-41
2022/10/03 10:40:44;;;;;;;0.77;0.77;;;;;;;;;;5031389;28;20065;-41
2022/10/03 10:43:29;;;;;;;1.10;1.00;;;;;;;;;;5031574;28;20028;-40
2022/10/03 10:46:13;;;;;;;0.68;0.68;;;;;;;;;;5031486;28;20041;-40
2022/10/03 10:48:57;;;;;;;1.15;0.70;;;;;;;;;;5031006;28;20099;-40
2022/10/03 10:51:42;;;;;;;6.25;0.88;;;;;;;;;;5013436;28;20044;-40
2022/10/03 10:54:26;;;;;;;1.15;0.90;;;;;;;;;;5031207;28;20045;-41
2022/10/03 10:57:01;;;;;;;1.45;0.77;;;;;;;;;;5031507;28;20037;-40
2022/10/03 10:59:29;;;;;;;1.15;0.80;;;;;;;;;;5031020;28;20621;-41
2022/10/03 11:02:07;;;;;;;0.95;0.77;;;;;;;;;;5031194;28;20017;-41
2022/10/03 11:05:02;;;;;;;0.73;0.43;;;;;;;;;;5031078;28;20103;-41
2022/10/03 11:07:57;;;;;;;1.25;0.70;;;;;;;;;;4943696;28;20047;-41
2022/10/03 11:10:29;;;;;;;7.93;0.90;;;;;;;;;;5030880;28;20029;-40
2022/10/03 11:13:05;;;;;;;0.57;0.55;;;;;;;;;;5030998;28;20091;-41
2022/10/03 11:15:51;;;;;;;0.75;0.65;;;;;;;;;;5031137;28;20048;-40
2022/10/03 11:18:31;;;;;;;1.48;0.63;;;;;;;;;;5013222;28;20423;-41
2022/10/03 11:21:26;;;;;;;0.70;0.50;;;;;;;;;;5030936;28;20029;-41
2022/10/03 11:24:10;;;;;;;0.88;0.50;;;;;;;;;;5031041;28;20033;-40
2022/10/03 11:26:35;;;;;;;0.68;0.50;;;;;;;;;;5031047;28;20039;-40
2022/10/03 11:29:01;;;;;;;0.70;0.43;;;;;;;;;;5030776;28;20037;-41
2022/10/03 11:31:45;;;;;;;1.02;0.63;;;;;;;;;;5030756;28;20073;-41
2022/10/03 11:34:29;;;;;;;2.70;0.38;;;;;;;;;;5030987;28;20052;-41
2022/10/03 11:37:18;;;;;;;1.20;0.60;;;;;;;;;;5034329;28;20053;-41
2022/10/03 11:40:03;;;;;;;2.58;0.50;;;;;;;;;;4988533;28;20045;-40
2022/10/03 11:42:44;;;;;;;0.60;0.50;;;;;;;;;;5034519;28;20124;-41
2022/10/03 11:45:24;;;;;;;0.93;0.70;;;;;;;;;;5034338;28;20498;-40
2022/10/03 11:47:53;;;;;;;1.60;0.70;;;;;;;;;;5034211;28;20511;-40
2022/10/03 11:50:19;;;;;;;0.63;0.63;;;;;;;;;;5034056;28;20124;-41
2022/10/03 11:53:03;;;;;;;0.70;0.65;;;;;;;;;;5016519;28;20108;-40
2022/10/03 11:55:40;;;;;;;0.57;0.55;;;;;;;;;;5034092;28;20032;-40
2022/10/03 11:58:22;;;;;;;0.98;0.63;;;;;;;;;;5016347;28;20124;-40
2022/10/03 12:00:57;;;;;;;0.30;0.30;;;;;;;;;;5034075;28;20116;-40
2022/10/03 12:03:25;;;;;;;2.97;1.75;;;;;;;;;;5034141;28;20025;-41
2022/10/03 12:08:53;;;;;;;0.70;0.68;;;;;;;;;;5034207;28;20034;-41
2022/10/03 12:09:14;;;;;;;2.53;0.80;;;;;;;;;;5033744;28;20033;-40
2022/10/03 12:11:44;;;;;;;0.90;0.57;;;;;;;;;;4979223;28;20056;-40
2022/10/03 12:14:09;;;;;;;0.40;0.40;;;;;;;;;;5034104;28;20396;-40
2022/10/03 12:16:56;;;;;;;0.57;0.55;;;;;;;;;;5033955;28;20037;-39
2022/10/03 12:19:29;;;;;;;0.77;0.52;;;;;;;;;;5033633;28;20060;-40
2022/10/03 12:22:14;;;;;;;0.88;0.73;;;;;;;;;;5033904;28;20042;-40
2022/10/03 12:24:41;;;;;;;0.20;0.20;;;;;;;;;;5033789;28;20079;-40
2022/10/03 12:27:28;;;;;;;0.60;0.60;;;;;;;;;;5033608;28;20037;-40
2022/10/03 12:30:00;;;;;;;0.82;0.68;;;;;;;;;;5033436;28;20042;-40
2022/10/03 12:32:26;;;;;;;0.70;0.70;;;;;;;;;;5033165;28;20480;-40
2022/10/03 12:34:59;;;;;;;0.50;0.50;;;;;;;;;;5033500;28;20027;-40
2022/10/03 12:37:32;;;;;;;0.52;0.40;;;;;;;;;;4993922;28;20468;-41
2022/10/03 12:40:04;;;;;;;0.70;0.70;;;;;;;;;;4993950;28;20035;-40
2022/10/03 12:42:53;;;;;;;0.52;0.40;;;;;;;;;;4993906;28;20030;-40
2022/10/03 12:45:31;;;;;;;0.63;0.55;;;;;;;;;;4993701;28;20031;-41
2022/10/03 12:47:57;;;;;;;6.28;1.67;;;;;;;;;;4993861;28;20023;-40
2022/10/03 12:50:26;;;;;;;0.50;0.50;;;;;;;;;;4993955;28;20536;-40
2022/10/03 12:53:10;;;;;;;0.52;0.47;;;;;;;;;;4993661;28;20034;-40
2022/10/03 12:55:43;;;;;;;1.05;0.95;;;;;;;;;;4993549;28;20030;-40
2022/10/03 12:58:09;;;;;;;0.57;0.57;;;;;;;;;;4993653;28;20104;-40
2022/10/03 13:00:50;;;;;;;2.70;0.65;;;;;;;;;;4993832;28;20461;-41
2022/10/03 13:03:20;;;;;;;0.50;0.50;;;;;;;;;;4993545;28;20536;-40
2022/10/03 13:05:54;;;;;;;0.55;0.55;;;;;;;;;;4992350;28;20037;-42
2022/10/03 13:08:38;;;;;;;0.57;0.57;;;;;;;;;;4993325;28;20084;-40
2022/10/03 13:11:04;;;;;;;0.63;0.50;;;;;;;;;;4993638;28;20088;-40
2022/10/03 13:13:32;;;;;;;0.70;0.50;;;;;;;;;;4993513;28;20532;-40
2022/10/03 13:16:02;;;;;;;1.45;0.40;;;;;;;;;;4993241;28;20038;-41
2022/10/03 13:18:40;;;;;;;0.32;0.32;;;;;;;;;;4993158;28;20018;-40
2022/10/03 13:21:08;;;;;;;0.50;0.32;;;;;;;;;;4993171;28;20034;-40
2022/10/03 13:23:37;;;;;;;0.70;0.45;;;;;;;;;;4991876;28;20388;-40
2022/10/03 13:26:07;;;;;;;3.67;1.00;;;;;;;;;;4993149;28;20084;-41
2022/10/03 13:28:48;;;;;;;0.43;0.43;;;;;;;;;;4992937;28;20037;-40
2022/10/03 13:31:27;;;;;;;1.00;0.93;;;;;;;;;;4993135;28;20073;-41
2022/10/03 13:33:57;;;;;;;1.10;0.60;;;;;;;;;;4993014;28;20041;-41
2022/10/03 13:36:43;;;;;;;0.50;0.50;;;;;;;;;;5015835;28;20112;-40
2022/10/03 13:39:15;;;;;;;1.15;0.63;;;;;;;;;;5032209;28;20028;-41
2022/10/03 13:41:58;;;;;;;0.55;0.43;;;;;;;;;;5032392;28;20387;-41
2022/10/03 13:44:43;;;;;;;0.70;0.63;;;;;;;;;;5031973;28;20030;-41
2022/10/03 13:47:24;;;;;;;0.43;0.43;;;;;;;;;;5014327;28;20465;-40
2022/10/03 13:49:50;;;;;;;0.50;0.40;;;;;;;;;;5014230;28;20135;-40
2022/10/03 13:52:17;;;;;;;0.68;0.60;;;;;;;;;;5031953;28;20024;-40
2022/10/03 13:54:43;;;;;;;0.40;0.40;;;;;;;;;;5031840;28;20078;-40
2022/10/03 13:57:15;;;;;;;0.47;0.47;;;;;;;;;;5031476;28;20018;-40
2022/10/03 13:59:48;;;;;;;0.50;0.50;;;;;;;;;;5032103;28;20376;-40
2022/10/03 14:02:13;;;;;;;0.95;0.82;;;;;;;;;;5014091;28;20163;-41
2022/10/03 14:04:47;;;;;;;0.77;0.60;;;;;;;;;;5031579;28;20112;-41
2022/10/03 14:07:38;;;;;;;1.08;0.47;;;;;;;;;;5031722;28;20037;-41
2022/10/03 14:10:29;;;;;;;2.40;0.70;;;;;;;;;;5031711;28;20526;-41
2022/10/03 14:12:55;;;;;;;0.85;0.70;;;;;;;;;;5026992;28;20049;-40
2022/10/03 14:15:29;;;;;;;0.60;0.60;;;;;;;;;;5031536;28;20541;-40
2022/10/03 14:17:57;;;;;;;1.25;0.60;;;;;;;;;;5031535;28;20026;-41
2022/10/03 14:20:28;;;;;;;0.50;0.50;;;;;;;;;;5031494;28;20045;-41
2022/10/03 14:23:19;;;;;;;0.70;0.70;;;;;;;;;;5031548;28;20029;-40
2022/10/03 14:25:48;;;;;;;0.95;0.73;;;;;;;;;;5031434;28;20066;-41
2022/10/03 14:28:40;;;;;;;0.40;0.40;;;;;;;;;;5031380;28;20049;-41
2022/10/03 14:31:13;;;;;;;0.77;0.77;;;;;;;;;;4993651;28;20076;-40
2022/10/03 14:33:42;;;;;;;0.60;0.57;;;;;;;;;;5031589;28;20068;-40
2022/10/03 14:36:18;;;;;;;0.93;0.80;;;;;;;;;;5031309;28;20046;-40
2022/10/03 14:39:01;;;;;;;0.63;0.63;;;;;;;;;;5031297;28;20365;-42
2022/10/03 14:41:33;;;;;;;2.35;0.70;;;;;;;;;;5031388;28;20053;-41
2022/10/03 14:44:00;;;;;;;0.90;0.90;;;;;;;;;;5031627;28;20403;-40
2022/10/03 14:46:28;;;;;;;1.10;0.70;;;;;;;;;;5031223;28;20041;-40
2022/10/03 14:48:58;;;;;;;2.10;1.15;;;;;;;;;;5031485;28;20080;-40
2022/10/03 14:51:37;;;;;;;0.70;0.60;;;;;;;;;;5031238;28;20042;-40
2022/10/03 14:54:06;;;;;;;1.95;0.82;;;;;;;;;;5031247;28;20029;-41
2022/10/03 14:56:33;;;;;;;0.68;0.50;;;;;;;;;;5031114;28;20021;-41
2022/10/03 14:59:00;;;;;;;0.82;0.82;;;;;;;;;;5031497;28;20056;-41
2022/10/03 15:01:27;;;;;;;0.90;0.80;;;;;;;;;;5031031;28;20014;-41
2022/10/03 15:04:06;;;;;;;1.00;0.70;;;;;;;;;;5031103;28;20056;-40
2022/10/03 15:06:47;;;;;;;0.60;0.60;;;;;;;;;;5031229;28;20124;-40
2022/10/03 15:09:17;;;;;;;3.00;0.88;;;;;;;;;;5031013;28;20466;-41
2022/10/03 15:12:08;;;;;;;1.38;0.60;;;;;;;;;;5034855;28;20407;-40
2022/10/03 15:14:35;;;;;;;0.68;0.55;;;;;;;;;;5029984;28;20052;-40
2022/10/03 15:17:03;;;;;;;0.95;0.75;;;;;;;;;;5035062;28;20033;-41
2022/10/03 15:19:35;;;;;;;0.75;0.45;;;;;;;;;;5034687;28;20035;-41
2022/10/03 15:22:19;;;;;;;1.10;1.00;;;;;;;;;;5034879;28;20087;-40
2022/10/03 15:24:45;;;;;;;2.55;0.77;;;;;;;;;;5034622;28;20054;-40
2022/10/03 15:27:18;;;;;;;0.60;0.60;;;;;;;;;;5034658;28;20045;-41
2022/10/03 15:29:44;;;;;;;0.65;0.65;;;;;;;;;;5034622;28;20125;-41
2022/10/03 15:32:18;;;;;;;1.08;0.93;;;;;;;;;;5034617;28;20450;-40
2022/10/03 15:34:48;;;;;;;0.45;0.40;;;;;;;;;;5034493;28;20089;-41
2022/10/03 15:37:18;;;;;;;1.15;0.77;;;;;;;;;;5034301;28;20045;-40
2022/10/03 15:39:46;;;;;;;0.85;0.68;;;;;;;;;;5034464;28;20435;-41
2022/10/03 15:42:21;;;;;;;5.07;0.60;;;;;;;;;;5034425;28;20021;-40
2022/10/03 15:44:52;;;;;;;1.10;0.50;;;;;;;;;;5034325;28;20044;-41
2022/10/03 15:47:20;;;;;;;0.60;0.60;;;;;;;;;;5034291;28;20518;-41